createdAt,value
2018-08-22T00:04:09.623Z,83.10
2018-08-22T00:06:39.580Z,83.30
2018-08-22T00:09:09.812Z,83.50
2018-08-22T00:14:08.647Z,83.20
2018-08-22T00:16:38.133Z,83.70
2018-08-22T00:19:07.721Z,84.50
2018-08-22T00:24:05.815Z,84.30
2018-08-22T00:29:05.387Z,83.60
2018-08-22T00:31:34.724Z,83.90
2018-08-22T00:34:04.055Z,83.80
2018-08-22T00:36:33.354Z,84.40
2018-08-22T00:39:08.115Z,84.20
2018-08-22T00:46:36.316Z,84.30
2018-08-22T00:49:05.987Z,84.50
2018-08-22T00:51:36.017Z,84.40
2018-08-22T00:54:05.390Z,84.90
2018-08-22T00:56:35.967Z,84.70
2018-08-22T00:59:05.419Z,79.40
2018-08-22T01:01:34.799Z,84.60
2018-08-22T01:04:04.088Z,84.90
2018-08-22T01:09:02.652Z,85.30
2018-08-22T01:11:32.053Z,85.00
2018-08-22T01:14:01.606Z,85.40
2018-08-22T01:16:31.030Z,85.30
2018-08-22T01:19:00.341Z,86.20
2018-08-22T01:21:29.669Z,81.50
2018-08-22T01:23:59.668Z,85.50
2018-08-22T01:29:04.706Z,85.80
2018-08-22T01:31:34.029Z,86.00
2018-08-22T01:36:34.251Z,86.50
2018-08-22T01:39:04.263Z,85.90
2018-08-22T01:41:33.583Z,85.80
2018-08-22T01:44:03.001Z,86.10
2018-08-22T01:46:33.287Z,86.20
2018-08-22T01:51:31.683Z,86.60
2018-08-22T01:54:01.028Z,88.10
2018-08-22T01:56:30.367Z,78.90
2018-08-22T01:58:59.579Z,85.40
2018-08-22T02:01:28.848Z,90.10
2018-08-22T02:03:58.226Z,90.00
2018-08-22T02:08:57.047Z,90.40
2018-08-22T02:11:26.412Z,90.80
2018-08-22T02:13:55.662Z,90.80
2018-08-22T02:21:23.538Z,90.80
2018-08-22T02:23:52.855Z,90.00
2018-08-22T02:26:22.179Z,90.90
2018-08-22T02:28:51.584Z,91.10
2018-08-22T02:31:20.824Z,91.30
2018-08-22T02:33:50.163Z,91.00
2018-08-22T02:36:19.507Z,91.20
2018-08-22T02:38:48.871Z,91.40
2018-08-22T02:41:18.293Z,91.40
2018-08-22T02:43:47.614Z,91.50
2018-08-22T02:46:17.044Z,91.00
2018-08-22T02:48:51.620Z,91.20
2018-08-22T02:51:21.071Z,90.70
2018-08-22T02:53:50.500Z,90.30
2018-08-22T02:56:19.977Z,90.20
2018-08-22T02:58:49.488Z,90.10
2018-08-22T03:03:48.058Z,92.00
2018-08-22T03:08:46.596Z,91.90
2018-08-22T03:13:45.997Z,91.00
2018-08-22T03:16:15.465Z,91.00
2018-08-22T03:18:44.816Z,83.00
2018-08-22T03:21:14.144Z,91.50
2018-08-22T03:23:43.604Z,92.10
2018-08-22T03:26:13.641Z,92.30
2018-08-22T03:33:41.481Z,92.80
2018-08-22T03:36:10.800Z,92.90
2018-08-22T03:46:08.258Z,90.20
2018-08-22T03:48:37.785Z,88.90
2018-08-22T03:51:07.110Z,93.10
2018-08-22T03:53:36.415Z,93.20
2018-08-22T04:01:04.047Z,93.80
2018-08-22T04:03:33.680Z,92.30
2018-08-22T04:06:03.012Z,94.30
2018-08-22T04:08:32.491Z,94.20
2018-08-22T04:11:01.798Z,94.60
2018-08-22T04:20:59.340Z,94.70
2018-08-22T04:23:28.690Z,92.00
2018-08-22T04:25:58.169Z,95.20
2018-08-22T04:28:27.606Z,95.00
2018-08-22T04:30:56.846Z,95.00
2018-08-22T04:33:26.051Z,93.20
2018-08-22T04:35:55.276Z,90.40
2018-08-22T04:38:24.517Z,95.00
2018-08-22T04:40:53.743Z,94.80
2018-08-22T04:43:23.047Z,94.90
2018-08-22T04:45:52.249Z,95.10
2018-08-22T04:48:21.575Z,93.20
2018-08-22T04:50:51.356Z,93.80
2018-08-22T04:55:49.539Z,93.70
2018-08-22T04:58:18.691Z,94.10
2018-08-22T05:00:47.887Z,92.60
2018-08-22T05:03:17.130Z,91.80
2018-08-22T05:05:46.469Z,94.10
2018-08-22T05:10:45.415Z,94.10
2018-08-22T05:13:14.678Z,93.40
2018-08-22T05:15:43.878Z,92.60
2018-08-22T05:20:42.066Z,91.70
2018-08-22T05:23:11.282Z,91.40
2018-08-22T05:25:40.545Z,91.10
2018-08-22T05:28:09.764Z,91.50
2018-08-22T05:30:38.963Z,91.50
2018-08-22T05:33:08.900Z,91.50
2018-08-22T05:38:07.211Z,90.10
2018-08-22T05:40:36.563Z,89.70
2018-08-22T05:45:34.883Z,86.80
2018-08-22T05:53:02.202Z,84.80
2018-08-22T05:58:00.734Z,82.90
2018-08-22T06:00:29.908Z,81.80
2018-08-22T06:02:59.212Z,77.10
2018-08-22T06:05:29.175Z,76.50
2018-08-22T06:10:27.567Z,79.80
2018-08-22T06:12:56.861Z,79.10
2018-08-22T06:15:26.182Z,78.90
2018-08-22T06:17:55.465Z,77.70
2018-08-22T06:22:53.646Z,76.40
2018-08-22T06:25:22.823Z,76.00
2018-08-22T06:30:21.217Z,75.20
2018-08-22T06:32:50.508Z,67.80
2018-08-22T06:35:20.410Z,75.10
2018-08-22T06:37:49.661Z,74.10
2018-08-22T06:40:18.894Z,74.00
2018-08-22T06:45:17.104Z,72.90
2018-08-22T06:47:46.322Z,72.00
2018-08-22T06:50:15.757Z,71.00
2018-08-22T06:52:45.166Z,71.30
2018-08-22T06:57:43.602Z,70.80
2018-08-22T07:00:12.860Z,73.00
2018-08-22T07:02:42.090Z,72.10
2018-08-22T07:07:40.798Z,72.90
2018-08-22T07:10:10.149Z,70.60
2018-08-22T07:12:40.583Z,69.30
2018-08-22T07:15:09.873Z,69.20
2018-08-22T07:17:39.124Z,69.60
2018-08-22T07:20:08.612Z,69.00
2018-08-22T07:22:38.053Z,69.60
2018-08-22T07:25:07.383Z,70.80
2018-08-22T07:27:36.756Z,70.00
2018-08-22T07:30:06.688Z,69.90
2018-08-22T07:32:36.104Z,70.20
2018-08-22T07:35:06.077Z,70.20
2018-08-22T07:37:35.460Z,71.00
2018-08-22T07:40:05.485Z,68.80
2018-08-22T07:42:34.845Z,69.70
2018-08-22T07:45:04.152Z,69.30
2018-08-22T07:47:33.486Z,67.80
2018-08-22T07:50:02.833Z,66.70
2018-08-22T07:52:32.228Z,66.90
2018-08-22T07:55:01.888Z,66.90
2018-08-22T07:57:31.325Z,66.10
2018-08-22T08:05:02.336Z,65.80
2018-08-22T08:10:00.780Z,64.90
2018-08-22T08:15:10.186Z,65.70
2018-08-22T08:17:39.538Z,65.30
2018-08-22T08:20:09.022Z,63.30
2018-08-22T08:25:08.744Z,62.60
2018-08-22T08:30:08.037Z,62.70
2018-08-22T08:32:37.709Z,63.80
2018-08-22T08:35:07.067Z,62.60
2018-08-22T08:40:08.544Z,62.30
2018-08-22T08:42:37.952Z,61.40
2018-08-22T08:45:09.916Z,61.90
2018-08-22T08:47:39.253Z,61.00
2018-08-22T08:50:09.025Z,63.40
2018-08-22T08:52:38.483Z,61.30
2018-08-22T08:55:08.041Z,62.20
2018-08-22T08:57:37.591Z,60.50
2018-08-22T09:00:06.947Z,62.10
2018-08-22T09:05:06.160Z,63.20
2018-08-22T09:07:35.531Z,58.60
2018-08-22T09:12:38.040Z,58.80
2018-08-22T09:15:08.373Z,61.30
2018-08-22T09:20:08.175Z,60.00
2018-08-22T09:22:37.605Z,60.30
2018-08-22T09:25:07.051Z,59.60
2018-08-22T09:27:36.493Z,59.60
2018-08-22T09:32:35.188Z,59.50
2018-08-22T09:40:03.116Z,59.90
2018-08-22T09:42:33.115Z,61.10
2018-08-22T09:45:03.312Z,60.30
2018-08-22T09:47:32.668Z,62.80
2018-08-22T09:52:31.125Z,61.30
2018-08-22T09:55:05.108Z,60.30
2018-08-22T09:57:34.407Z,60.70
2018-08-22T10:00:05.752Z,61.00
2018-08-22T10:12:31.848Z,60.70
2018-08-22T10:15:01.362Z,60.60
2018-08-22T10:17:30.644Z,60.40
2018-08-22T10:20:00.032Z,60.80
2018-08-22T10:22:29.408Z,59.90
2018-08-22T10:24:58.787Z,59.80
2018-08-22T10:27:28.191Z,60.20
2018-08-22T10:29:58.537Z,60.50
2018-08-22T10:32:28.053Z,55.20
2018-08-22T10:34:57.443Z,59.00
2018-08-22T10:37:26.803Z,58.50
2018-08-22T10:42:25.423Z,58.70
2018-08-22T10:44:54.993Z,60.40
2018-08-22T10:47:24.547Z,59.80
2018-08-22T10:49:54.682Z,60.20
2018-08-22T10:52:24.285Z,60.30
2018-08-22T10:54:53.619Z,58.30
2018-08-22T10:57:23.055Z,58.50
2018-08-22T10:59:54.489Z,58.70
2018-08-22T11:04:53.085Z,58.30
2018-08-22T11:07:22.524Z,58.50
2018-08-22T11:09:52.560Z,59.40
2018-08-22T11:12:21.941Z,58.60
2018-08-22T11:14:51.575Z,57.00
2018-08-22T11:17:21.050Z,57.20
2018-08-22T11:19:50.330Z,58.20
2018-08-22T11:22:36.780Z,57.80
2018-08-22T11:25:23.153Z,57.20
2018-08-22T11:28:09.390Z,57.80
2018-08-22T11:30:55.874Z,57.70
2018-08-22T11:36:04.518Z,57.40
2018-08-22T11:41:03.099Z,57.80
2018-08-22T11:43:32.425Z,57.90
2018-08-22T11:50:59.972Z,57.80
2018-08-22T11:58:27.564Z,58.90
2018-08-22T12:00:57.096Z,58.50
2018-08-22T12:03:26.406Z,58.10
2018-08-22T12:05:55.847Z,58.80
2018-08-22T12:08:25.355Z,56.70
2018-08-22T12:10:54.700Z,57.10
2018-08-22T12:13:23.963Z,56.90
2018-08-22T12:15:53.316Z,58.60
2018-08-22T12:18:22.749Z,56.80
2018-08-22T12:20:52.141Z,57.00
2018-08-22T12:23:23.799Z,56.90
2018-08-22T12:28:22.396Z,56.40
2018-08-22T12:30:51.827Z,58.20
2018-08-22T12:33:21.611Z,57.70
2018-08-22T12:38:20.187Z,58.70
2018-08-22T12:40:50.033Z,57.50
2018-08-22T12:43:19.309Z,58.80
2018-08-22T12:48:17.794Z,58.50
2018-08-22T12:50:47.122Z,58.10
2018-08-22T12:53:16.418Z,58.80
2018-08-22T12:55:45.764Z,57.40
2018-08-22T13:00:44.209Z,59.70
2018-08-22T13:03:13.603Z,57.80
2018-08-22T13:08:12.177Z,51.80
2018-08-22T13:13:10.861Z,57.10
2018-08-22T13:15:40.401Z,56.80
2018-08-22T13:18:09.758Z,56.50
2018-08-22T13:23:09.278Z,55.60
2018-08-22T13:25:38.623Z,56.50
2018-08-22T13:30:37.266Z,53.90
2018-08-22T13:33:06.623Z,57.40
2018-08-22T13:35:37.799Z,56.90
2018-08-22T13:38:07.774Z,58.20
2018-08-22T13:43:06.502Z,53.60
2018-08-22T13:45:35.896Z,54.00
2018-08-22T13:48:08.494Z,53.50
2018-08-22T13:50:38.501Z,52.40
2018-08-22T13:53:08.770Z,51.70
2018-08-22T13:55:38.459Z,50.90
2018-08-22T13:58:07.919Z,53.90
2018-08-22T14:00:37.276Z,52.80
2018-08-22T14:05:35.802Z,54.40
2018-08-22T14:08:05.123Z,54.30
2018-08-22T14:10:34.599Z,57.30
2018-08-22T14:13:04.001Z,57.50
2018-08-22T14:18:02.946Z,57.70
2018-08-22T14:25:31.644Z,52.20
2018-08-22T14:28:01.080Z,53.40
2018-08-22T14:32:59.528Z,56.30
2018-08-22T14:35:29.014Z,52.50
2018-08-22T14:37:58.277Z,48.20
2018-08-22T14:42:56.695Z,54.80
2018-08-22T14:45:26.033Z,57.60
2018-08-22T14:47:56.637Z,55.30
2018-08-22T14:52:55.736Z,53.00
2018-08-22T14:55:25.174Z,52.70
2018-08-22T14:57:54.673Z,52.20
2018-08-22T15:00:24.042Z,52.60
2018-08-22T15:02:54.478Z,54.20
2018-08-22T15:07:52.898Z,53.30
2018-08-22T15:10:22.196Z,53.10
2018-08-22T15:12:51.486Z,52.10
2018-08-22T15:15:20.805Z,53.10
2018-08-22T15:17:50.090Z,53.40
2018-08-22T15:22:49.556Z,54.60
2018-08-22T15:25:19.034Z,53.70
2018-08-22T15:27:48.556Z,53.10
2018-08-22T15:30:17.965Z,52.70
2018-08-22T15:32:47.856Z,53.00
2018-08-22T15:35:17.258Z,52.10
2018-08-22T15:37:46.784Z,53.30
2018-08-22T15:40:16.128Z,52.80
2018-08-22T15:42:45.507Z,53.20
2018-08-22T15:45:14.879Z,52.60
2018-08-22T15:47:44.901Z,53.30
2018-08-22T15:52:43.253Z,52.80
2018-08-22T15:55:15.760Z,52.40
2018-08-22T16:00:36.381Z,55.30
2018-08-22T16:03:07.168Z,55.50
2018-08-22T16:05:37.396Z,57.00
2018-08-22T16:10:36.859Z,54.70
2018-08-22T16:15:39.345Z,55.90
2018-08-22T16:18:09.823Z,51.00
2018-08-22T16:20:46.862Z,51.10
2018-08-22T16:25:47.853Z,49.30
2018-08-22T16:28:17.588Z,54.20
2018-08-22T16:30:56.771Z,53.90
2018-08-22T16:33:40.368Z,52.90
2018-08-22T16:36:14.543Z,48.80
2018-08-22T16:38:43.892Z,52.70
2018-08-22T16:41:13.263Z,49.00
2018-08-22T16:43:43.701Z,50.70
2018-08-22T16:48:47.583Z,54.00
2018-08-22T16:56:41.922Z,51.00
2018-08-22T17:01:48.377Z,53.20
2018-08-22T17:06:47.247Z,53.30
2018-08-22T17:11:45.855Z,50.70
2018-08-22T17:14:15.280Z,54.00
2018-08-22T17:16:44.671Z,51.20
2018-08-22T17:19:14.165Z,52.20
2018-08-22T17:21:43.581Z,47.70
2018-08-22T17:24:13.113Z,53.00
2018-08-22T17:26:42.454Z,52.60
2018-08-22T17:31:40.901Z,52.20
2018-08-22T17:34:10.237Z,49.30
2018-08-22T17:39:08.928Z,53.00
2018-08-22T17:49:10.027Z,52.40
2018-08-22T17:52:12.666Z,47.10
2018-08-22T17:54:42.133Z,51.80
2018-08-22T17:57:21.254Z,53.90
2018-08-22T17:59:53.572Z,48.20
2018-08-22T18:05:03.878Z,54.10
2018-08-22T18:17:41.813Z,56.50
2018-08-22T18:20:13.338Z,57.20
2018-08-22T18:22:42.927Z,57.40
2018-08-22T18:25:12.320Z,57.40
2018-08-22T18:27:42.581Z,58.00
2018-08-22T18:38:10.585Z,59.80
2018-08-22T18:40:39.954Z,59.60
2018-08-22T18:43:09.646Z,60.00
2018-08-22T18:45:55.016Z,60.00
2018-08-22T18:48:24.481Z,56.80
2018-08-22T18:51:00.742Z,57.90
2018-08-22T18:59:12.632Z,56.80
2018-08-22T19:07:07.071Z,56.70
2018-08-22T19:09:39.919Z,56.60
2018-08-22T19:12:09.372Z,57.10
2018-08-22T19:17:28.738Z,57.60
2018-08-22T19:22:27.087Z,58.50
2018-08-22T19:25:06.339Z,59.30
2018-08-22T19:32:42.076Z,62.10
2018-08-22T19:35:11.689Z,61.00
2018-08-22T19:37:41.084Z,60.80
2018-08-22T19:40:11.008Z,59.70
2018-08-22T19:42:41.053Z,59.80
2018-08-22T19:45:10.588Z,61.40
2018-08-22T19:50:10.235Z,59.20
2018-08-22T19:52:39.527Z,60.00
2018-08-22T19:55:09.104Z,60.60
2018-08-22T19:57:39.929Z,60.70
2018-08-22T20:00:16.190Z,60.20
2018-08-22T20:08:39.904Z,60.00
2018-08-22T20:11:09.184Z,60.40
2018-08-22T20:16:31.940Z,60.40
2018-08-22T20:21:44.738Z,60.90
2018-08-22T20:24:14.208Z,62.90
2018-08-22T20:29:18.865Z,63.10
2018-08-22T20:31:48.280Z,59.00
2018-08-22T20:36:49.287Z,62.80
2018-08-22T20:39:18.717Z,62.70
2018-08-22T20:41:50.723Z,62.80
2018-08-22T20:46:50.760Z,62.40
2018-08-22T20:49:20.934Z,57.30
2018-08-22T20:51:50.314Z,60.50
2018-08-22T20:56:55.978Z,62.10
2018-08-22T21:02:03.546Z,61.90
2018-08-22T21:04:33.232Z,61.20
2018-08-22T21:07:02.632Z,57.60
2018-08-22T21:09:32.030Z,62.20
2018-08-22T21:12:01.432Z,61.60
2018-08-22T21:17:00.440Z,62.30
2018-08-22T21:19:29.833Z,62.50
2018-08-22T21:22:03.189Z,62.00
2018-08-22T21:24:32.664Z,62.60
2018-08-22T21:27:02.025Z,62.90
2018-08-22T21:29:38.121Z,63.00
2018-08-22T21:34:37.194Z,63.50
2018-08-22T21:37:25.980Z,63.00
2018-08-22T21:42:57.637Z,63.60
2018-08-22T21:45:27.037Z,63.60
2018-08-22T21:50:43.287Z,64.30
2018-08-22T21:58:12.395Z,65.30
2018-08-22T22:00:44.802Z,67.00
2018-08-22T22:05:51.238Z,68.90
2018-08-22T22:08:20.709Z,69.20
2018-08-22T22:13:19.586Z,70.10
2018-08-22T22:20:52.960Z,71.90
2018-08-22T22:23:22.355Z,71.80
2018-08-22T22:25:51.719Z,71.80
2018-08-22T22:28:25.781Z,72.60
2018-08-22T22:30:55.872Z,73.20
2018-08-22T22:35:54.428Z,67.60
2018-08-22T22:38:24.400Z,75.20
2018-08-22T22:40:53.856Z,75.50
2018-08-22T22:43:23.361Z,76.30
2018-08-22T22:45:52.833Z,76.70
2018-08-22T22:48:35.394Z,76.60
2018-08-22T22:51:04.792Z,76.70
2018-08-22T22:56:03.452Z,77.10
2018-08-22T22:58:34.513Z,77.70
2018-08-22T23:01:03.788Z,78.10
2018-08-22T23:03:33.125Z,78.60
2018-08-22T23:06:02.383Z,78.50
2018-08-22T23:08:31.703Z,79.10
2018-08-22T23:13:30.881Z,79.30
2018-08-22T23:16:00.265Z,80.20
2018-08-22T23:18:29.725Z,79.20
2018-08-22T23:26:16.073Z,79.90
2018-08-22T23:31:19.369Z,80.20
2018-08-22T23:33:48.807Z,80.40
2018-08-22T23:36:18.125Z,77.90
2018-08-22T23:41:16.681Z,81.20
2018-08-22T23:46:21.916Z,78.50
2018-08-22T23:48:57.536Z,80.40
2018-08-22T23:53:59.423Z,77.00
2018-08-22T23:58:59.519Z,82.30
